Airfield :
LOGIN :

Register | Disclaimer

   EN    FR    IT 

 










Legend :    VFR   Marginal VFR   IFR   Intensive IFR   Very Intensive IFR
Visi :
Ceiling :
>= 8 km
>= 3000ft
5 to 8 km
1000 to 3000 ft
1500m to 5 km
500 to 1000 ft
800 to 1500m
200 to 500 ft
< 800m
< 200 ft
Symbols :   Thunderstorms  Fog  Heavy snow  Heavy precipitations  Wind > 20 kt
SIGMETs :     Misc.  Thunderstorms  Icing  Turbulence  Mountain Waves  Volcanic Ashes






- Airport Elevation : 242 ft
- IATA code : DUB


EIDW - Dublin

CURRENT METAR :
  • 280200Z 23013G24KT 200V280 9999 FEW020 BKN210 07/03 Q0991 NOSIG

EXPIRED METARs :
  • 280130Z 23013KT 180V280 9999 FEW020 BKN230 07/03 Q0990 NOSIG
  • 280100Z 23014G25KT 200V280 9999 FEW020 SCT240 07/03 Q0990 NOSIG
  • 280030Z 23012G22KT 200V270 9999 FEW020 BKN230 08/03 Q0990 NOSIG
  • 280000Z 23012G22KT 170V280 9999 FEW020 BKN220 08/03 Q0990 NOSIG
  • 272330Z 23012G24KT 180V290 9999 FEW022 BKN220 08/04 Q0990 NOSIG

TAF TAF EIDW
Valid from the 28 at 00:00 until the 29 at 00:00 UTC


272300Z 2800/2824 23014KT 9999 FEW020 SCT040
TEMPO 2800/2824 24015G26KT
PROB40
TEMPO 2803/2808 24019G31KT
TEMPO 2811/2820 -SHRA SCT018CB
PROB40
TEMPO 2812/2817 5000 SHRA
PROB40
TEMPO 2816/2820 25019G31KT



MET'MAP, your aeronautical weather chart ! - Copyright ORBIFLY December 2007 - Disclaimer

ORBIFLY MET'MAP TEAM :

Programming & Development : Alexandra Zaïnal
Concept & original design : Baudouin d'Aumeries
Assistance for programming : Marc-Olivier Méhu
Technical & hardware support : Manuel Goepfert

Contact : metmap@orbifly.com




SOURCES & CREDITS :

   NOAA